Time;durP1;ratioP1;P1;durP2;ratioP2;P2;SDS_P1;SDS_P2;PMS_P1;PMS_P2;Temp;Humidity;BMP_temperature;BMP_pressure;BME280_temperature;BME280_humidity;BME280_pressure;Samples;Min_cycle;Max_cycle;Signal;HPM_P1;HPM_P2
2023/01/10 00:00:39;;;;;;;5.13;1.52;;;4.90;99.90;;;;;;5053566;28;20045;-78
2023/01/10 00:03:07;;;;;;;4.50;1.90;;;4.90;99.90;;;;;;5042560;28;20044;-79
2023/01/10 00:05:34;;;;;;;5.65;1.90;;;5.00;99.90;;;;;;5074513;28;20055;-78
2023/01/10 00:08:03;;;;;;;4.95;2.08;;;5.00;99.90;;;;;;5054318;28;20503;-78
2023/01/10 00:10:30;;;;;;;5.32;1.55;;;4.90;99.90;;;;;;5067175;28;20040;-79
2023/01/10 00:15:40;;;;;;;6.53;1.83;;;4.80;99.90;;;;;;5074000;28;20044;-80
2023/01/10 00:18:06;;;;;;;5.80;2.15;;;4.80;99.90;;;;;;5059180;28;20108;-79
2023/01/10 00:20:32;;;;;;;6.90;2.17;;;4.90;99.90;;;;;;5055377;28;20048;-78
2023/01/10 00:22:58;;;;;;;6.18;1.65;;;4.40;99.90;;;;;;5074711;28;20045;-77
2023/01/10 00:25:24;;;;;;;6.07;1.77;;;4.80;99.90;;;;;;5080633;28;20068;-79
2023/01/10 00:30:38;;;;;;;6.60;1.70;;;4.70;99.90;;;;;;5074914;28;20106;-79
2023/01/10 00:33:04;;;;;;;5.55;1.65;;;4.60;99.90;;;;;;5075327;28;20044;-78
2023/01/10 00:35:30;;;;;;;6.40;1.70;;;4.60;99.90;;;;;;5078445;28;20040;-78
2023/01/10 00:38:04;;;;;;;8.10;2.33;;;4.50;99.90;;;;;;5073120;28;20049;-78
2023/01/10 00:40:31;;;;;;;6.10;2.17;;;4.50;99.90;;;;;;5059125;28;20080;-78
2023/01/10 00:45:46;;;;;;;8.02;2.47;;;4.50;99.90;;;;;;5060572;28;20044;-77
2023/01/10 00:48:13;;;;;;;4.25;2.00;;;4.60;99.90;;;;;;5073387;28;20048;-77
2023/01/10 00:50:40;;;;;;;6.85;2.30;;;4.60;99.90;;;;;;5075484;28;20052;-76
2023/01/10 00:53:06;;;;;;;8.82;3.15;;;4.60;99.90;;;;;;5061065;28;20041;-79
2023/01/10 00:55:33;;;;;;;6.20;2.20;;;4.70;99.90;;;;;;5067252;28;20079;-76
2023/01/10 00:57:59;;;;;;;6.60;2.60;;;4.80;99.90;;;;;;5075167;28;20408;-78
2023/01/10 01:00:25;;;;;;;4.85;2.05;;;4.80;99.90;;;;;;5061138;28;20047;-77
2023/01/10 01:02:51;;;;;;;8.80;3.05;;;4.90;99.90;;;;;;5062714;28;20091;-80
2023/01/10 01:05:17;;;;;;;5.18;1.90;;;4.90;99.90;;;;;;5075026;28;20068;-82
2023/01/10 01:07:43;;;;;;;7.43;2.35;;;5.00;99.90;;;;;;5059060;28;20423;-78
2023/01/10 01:10:27;;;;;;;9.60;2.70;;;5.00;99.90;;;;;;5077842;28;20044;-76
2023/01/10 01:12:57;;;;;;;6.93;2.25;;;5.00;99.90;;;;;;5073191;28;20049;-79
2023/01/10 01:15:24;;;;;;;8.32;2.70;;;5.00;99.90;;;;;;5059389;28;20125;-79
2023/01/10 01:17:50;;;;;;;9.90;2.60;;;5.00;99.90;;;;;;5058455;28;20078;-79
2023/01/10 01:20:16;;;;;;;9.77;2.50;;;5.00;99.90;;;;;;5058136;28;20061;-77
2023/01/10 01:22:42;;;;;;;8.50;2.13;;;4.90;99.90;;;;;;5091401;28;20059;-77
2023/01/10 01:25:08;;;;;;;8.02;2.60;;;4.90;99.90;;;;;;5072921;28;20531;-78
2023/01/10 01:27:34;;;;;;;6.63;2.60;;;4.80;99.90;;;;;;5078544;28;20688;-77
2023/01/10 01:30:00;;;;;;;10.73;2.60;;;4.80;99.90;;;;;;5079339;28;20040;-77
2023/01/10 01:32:26;;;;;;;7.18;2.53;;;4.80;99.90;;;;;;5077466;28;20063;-77
2023/01/10 01:34:52;;;;;;;9.88;2.50;;;4.70;99.90;;;;;;5075649;28;20047;-77
2023/01/10 01:37:18;;;;;;;9.38;2.53;;;4.70;99.90;;;;;;5068740;28;20064;-80
2023/01/10 01:39:47;;;;;;;7.55;2.15;;;4.70;99.90;;;;;;5041544;28;20525;-80
2023/01/10 01:42:28;;;;;;;6.55;2.40;;;4.80;99.90;;;;;;5092799;28;20084;-78
2023/01/10 01:45:30;;;;;;;6.53;2.53;;;4.80;99.90;;;;;;5059267;28;20064;-76
2023/01/10 01:48:13;;;;;;;7.18;2.58;;;4.90;99.90;;;;;;5080694;28;20040;-76
2023/01/10 01:50:50;;;;;;;8.13;2.88;;;5.00;99.90;;;;;;5072066;28;20056;-76
2023/01/10 01:53:34;;;;;;;8.90;2.95;;;5.00;99.90;;;;;;5076318;28;20036;-76
2023/01/10 01:56:12;;;;;;;11.23;2.80;;;4.90;99.90;;;;;;5079044;28;20066;-77
2023/01/10 01:58:48;;;;;;;8.02;2.67;;;4.90;99.90;;;;;;5075233;28;20029;-76
2023/01/10 02:01:15;;;;;;;8.80;2.40;;;5.10;99.90;;;;;;5068366;28;20052;-76
2023/01/10 02:03:44;;;;;;;7.85;2.40;;;5.00;99.90;;;;;;5069361;28;20436;-78
2023/01/10 02:06:10;;;;;;;11.25;2.95;;;5.00;99.90;;;;;;5053491;28;20036;-78
2023/01/10 02:08:42;;;;;;;7.03;2.60;;;4.90;99.90;;;;;;5072364;28;20040;-77
2023/01/10 02:11:09;;;;;;;8.73;3.08;;;4.80;99.90;;;;;;5045582;28;20047;-77
2023/01/10 02:13:40;;;;;;;6.45;2.20;;;4.80;99.90;;;;;;5091965;28;20043;-78
2023/01/10 02:16:06;;;;;;;5.75;3.22;;;4.70;99.90;;;;;;5065574;28;20045;-77
2023/01/10 02:18:32;;;;;;;7.78;2.30;;;4.70;99.90;;;;;;5075270;28;20579;-78
2023/01/10 02:21:17;;;;;;;6.97;2.65;;;4.70;99.90;;;;;;5067888;28;21417;-78
2023/01/10 02:24:14;;;;;;;7.55;2.53;;;4.80;99.90;;;;;;5070318;28;20100;-77
2023/01/10 02:26:52;;;;;;;10.07;2.92;;;4.80;99.90;;;;;;5057298;28;20106;-79
2023/01/10 02:29:42;;;;;;;8.80;3.00;;;4.80;99.90;;;;;;5065583;28;20055;-79
2023/01/10 02:32:23;;;;;;;17.17;3.22;;;4.90;99.90;;;;;;5064499;28;20080;-76
2023/01/10 02:35:11;;;;;;;5.90;3.08;;;4.70;99.90;;;;;;5060160;28;20501;-77
2023/01/10 02:37:37;;;;;;;5.55;2.83;;;4.70;99.90;;;;;;5067970;28;20044;-77
2023/01/10 02:40:12;;;;;;;7.78;2.60;;;4.70;99.90;;;;;;5062403;28;20045;-76
2023/01/10 02:43:12;;;;;;;10.75;2.95;;;4.70;99.90;;;;;;5074221;28;20135;-81
2023/01/10 02:46:30;;;;;;;9.55;3.13;;;4.70;99.90;;;;;;5054417;28;20055;-77
2023/01/10 02:48:55;;;;;;;5.57;2.10;;;4.70;99.90;;;;;;5022532;28;20045;-77
2023/01/10 02:51:26;;;;;;;8.82;2.45;;;4.70;99.90;;;;;;5036895;28;20069;-78
2023/01/10 02:54:00;;;;;;;6.22;2.08;;;4.70;99.90;;;;;;5038730;28;20062;-78
2023/01/10 02:56:39;;;;;;;10.65;3.08;;;4.70;99.90;;;;;;5071069;28;20052;-77
2023/01/10 02:59:13;;;;;;;5.68;1.98;;;4.60;99.90;;;;;;5081938;28;20049;-77
2023/01/10 03:02:01;;;;;;;7.63;2.33;;;4.60;99.90;;;;;;5074385;28;20124;-79
2023/01/10 03:04:40;;;;;;;6.30;2.45;;;4.60;99.90;;;;;;5078671;28;20106;-82
2023/01/10 03:07:21;;;;;;;6.50;2.55;;;4.50;99.90;;;;;;5072686;28;20041;-77
2023/01/10 03:10:03;;;;;;;7.72;2.42;;;4.40;99.90;;;;;;5055014;28;20040;-77
2023/01/10 03:12:49;;;;;;;8.18;3.08;;;4.40;99.90;;;;;;5091614;28;20053;-79
2023/01/10 03:15:17;;;;;;;;;;;4.40;99.90;;;;;;5072701;28;20072;-76
2023/01/10 03:17:48;;;;;;;7.13;2.35;;;4.50;99.90;;;;;;5061123;28;20367;-77
2023/01/10 03:20:15;;;;;;;9.27;2.85;;;4.50;99.90;;;;;;5051187;28;20060;-78
2023/01/10 03:22:42;;;;;;;12.55;3.17;;;4.50;99.90;;;;;;5059663;28;20055;-78
2023/01/10 03:25:12;;;;;;;9.77;2.60;;;4.50;99.90;;;;;;5071813;28;20091;-80
2023/01/10 03:27:54;;;;;;;4.50;2.40;;;4.60;99.90;;;;;;5070341;28;20076;-78
2023/01/10 03:30:39;;;;;;;9.15;2.70;;;4.70;99.90;;;;;;5068770;28;20056;-80
2023/01/10 03:33:05;;;;;;;6.63;2.47;;;4.70;99.90;;;;;;5085428;28;20489;-77
2023/01/10 03:35:57;;;;;;;11.35;2.78;;;4.70;99.90;;;;;;5073978;28;20061;-76
2023/01/10 03:38:45;;;;;;;8.98;2.20;;;4.70;99.90;;;;;;5069336;28;20082;-78
2023/01/10 03:41:22;;;;;;;8.63;2.33;;;4.70;99.90;;;;;;5065821;28;20046;-81
2023/01/10 03:46:52;;;;;;;8.75;2.80;;;4.80;99.90;;;;;;5076733;28;20446;-83
2023/01/10 03:49:21;;;;;;;8.45;2.22;;;4.80;99.90;;;;;;5049904;28;20045;-79
2023/01/10 03:51:47;;;;;;;8.25;2.17;;;4.80;99.90;;;;;;5063346;28;20108;-79
2023/01/10 03:54:15;;;;;;;6.28;1.90;;;4.70;99.90;;;;;;5071918;28;20448;-78
2023/01/10 03:56:49;;;;;;;6.68;2.30;;;4.60;99.90;;;;;;5065777;28;20057;-84
2023/01/10 03:59:26;;;;;;;5.10;2.45;;;4.50;99.90;;;;;;5060905;28;20049;-76
2023/01/10 04:01:52;;;;;;;6.30;2.90;;;4.50;99.90;;;;;;5073089;28;20048;-78
2023/01/10 04:04:18;;;;;;;6.93;2.25;;;4.50;99.90;;;;;;5080888;28;20037;-77
2023/01/10 04:06:44;;;;;;;8.07;2.05;;;4.40;99.90;;;;;;5041188;28;20041;-79
2023/01/10 04:09:10;;;;;;;8.45;2.72;;;4.40;99.90;;;;;;5080690;28;20048;-77
2023/01/10 04:11:36;;;;;;;9.93;2.50;;;4.30;99.90;;;;;;5080278;28;20043;-79
2023/01/10 04:14:01;;;;;;;11.63;2.92;;;4.40;99.90;;;;;;5079465;28;20051;-82
2023/01/10 04:16:27;;;;;;;8.85;3.05;;;4.40;99.90;;;;;;5081638;28;20040;-79
2023/01/10 04:18:53;;;;;;;7.28;2.58;;;4.50;99.90;;;;;;5061658;28;20393;-75
2023/01/10 04:21:18;;;;;;;5.25;2.10;;;4.50;99.90;;;;;;5080873;28;20140;-79
2023/01/10 04:23:44;;;;;;;7.20;2.20;;;4.40;99.90;;;;;;5055281;28;20040;-77
2023/01/10 04:26:10;;;;;;;9.80;2.50;;;4.50;99.90;;;;;;5080731;28;20075;-76
2023/01/10 04:28:36;;;;;;;6.88;2.33;;;4.50;99.90;;;;;;5073620;28;20045;-80
2023/01/10 04:31:02;;;;;;;8.75;2.72;;;4.60;99.90;;;;;;5055895;28;20051;-77
2023/01/10 04:33:28;;;;;;;9.32;2.67;;;4.70;99.90;;;;;;5059580;28;20048;-80
2023/01/10 04:35:54;;;;;;;6.03;2.60;;;4.80;99.90;;;;;;5057428;28;20053;-77
2023/01/10 04:38:19;;;;;;;10.50;3.38;;;4.80;99.90;;;;;;5072184;28;20041;-79
2023/01/10 04:40:55;;;;;;;6.47;2.13;;;4.80;99.90;;;;;;5058141;28;20067;-78
2023/01/10 04:43:22;;;;;;;7.57;2.38;;;4.80;99.90;;;;;;5080465;28;20093;-80
2023/01/10 04:45:47;;;;;;;8.02;2.08;;;4.90;99.90;;;;;;5079554;28;20036;-78
2023/01/10 04:48:13;;;;;;;6.63;2.20;;;4.80;99.90;;;;;;5079804;28;20062;-75
2023/01/10 04:50:39;;;;;;;7.07;2.30;;;4.90;99.90;;;;;;5101066;28;20102;-78
2023/01/10 04:53:05;;;;;;;8.57;2.30;;;4.90;99.90;;;;;;5058335;28;20428;-78
2023/01/10 04:55:32;;;;;;;8.57;2.25;;;5.00;99.90;;;;;;5069633;28;20472;-77
2023/01/10 04:57:58;;;;;;;7.63;2.15;;;5.00;99.90;;;;;;5059148;28;20055;-76
2023/01/10 05:00:24;;;;;;;7.10;2.42;;;5.00;99.90;;;;;;5080200;28;20040;-78
2023/01/10 05:02:55;;;;;;;7.18;2.25;;;5.00;99.90;;;;;;5062398;28;20132;-78
2023/01/10 05:05:20;;;;;;;10.52;2.67;;;5.00;99.90;;;;;;5079231;28;20056;-81
2023/01/10 05:07:49;;;;;;;11.65;2.42;;;4.90;99.90;;;;;;5080278;28;20051;-76
2023/01/10 05:10:15;;;;;;;8.02;2.83;;;4.90;99.90;;;;;;5053731;28;20068;-80
2023/01/10 05:12:41;;;;;;;9.05;3.25;;;5.00;99.90;;;;;;5079862;28;20063;-78
2023/01/10 05:15:07;;;;;;;10.52;2.55;;;5.00;99.90;;;;;;5056648;28;20429;-77
2023/01/10 05:17:33;;;;;;;9.43;2.40;;;5.00;99.90;;;;;;5080189;28;20061;-78
2023/01/10 05:19:58;;;;;;;11.05;3.08;;;5.10;99.90;;;;;;5073567;28;20065;-77
2023/01/10 05:22:24;;;;;;;9.23;2.33;;;5.00;99.90;;;;;;5079016;28;20390;-79
2023/01/10 05:24:50;;;;;;;7.38;3.03;;;5.00;99.90;;;;;;5071807;28;20068;-77
2023/01/10 05:27:16;;;;;;;8.52;2.40;;;5.00;99.90;;;;;;5077253;28;20036;-76
2023/01/10 05:29:42;;;;;;;11.07;2.85;;;4.90;99.90;;;;;;5062545;28;20087;-82
2023/01/10 05:32:07;;;;;;;6.45;2.20;;;4.90;99.90;;;;;;5040675;28;20045;-79
2023/01/10 05:34:33;;;;;;;9.57;2.92;;;5.00;99.90;;;;;;5043429;28;20435;-78
2023/01/10 05:36:59;;;;;;;8.93;2.95;;;5.00;99.90;;;;;;5066526;28;20512;-79
2023/01/10 05:39:25;;;;;;;13.77;3.40;;;5.00;99.90;;;;;;5078625;28;20084;-79
2023/01/10 05:41:50;;;;;;;9.00;2.60;;;5.00;99.90;;;;;;5058986;28;20040;-77
2023/01/10 05:44:16;;;;;;;8.43;2.45;;;4.90;99.90;;;;;;5072335;28;20094;-77
2023/01/10 05:46:42;;;;;;;8.45;2.88;;;5.00;99.90;;;;;;5049282;28;20055;-82
2023/01/10 05:49:07;;;;;;;13.70;2.92;;;5.00;99.90;;;;;;5053009;28;20045;-78
2023/01/10 05:51:34;;;;;;;8.45;2.85;;;5.00;99.90;;;;;;5062778;28;20080;-78
2023/01/10 05:54:00;;;;;;;15.55;4.38;;;5.00;99.90;;;;;;5053612;28;20373;-78
2023/01/10 05:56:25;;;;;;;9.13;3.45;;;5.10;99.90;;;;;;5053482;28;20043;-77
2023/01/10 05:58:51;;;;;;;8.63;2.97;;;5.00;99.90;;;;;;5061737;28;20048;-78
2023/01/10 06:01:17;;;;;;;12.60;3.13;;;5.10;99.90;;;;;;5077226;28;20068;-76
2023/01/10 06:03:43;;;;;;;9.63;3.25;;;5.10;99.90;;;;;;5071840;28;21758;-77
2023/01/10 06:06:09;;;;;;;10.85;2.70;;;5.20;99.90;;;;;;5049182;28;20040;-75
2023/01/10 06:08:35;;;;;;;10.20;3.60;;;5.20;99.90;;;;;;5066098;28;20119;-80
2023/01/10 06:11:04;;;;;;;13.23;3.00;;;5.10;99.90;;;;;;5069723;28;20044;-79
2023/01/10 06:13:30;;;;;;;7.78;2.85;;;5.20;99.90;;;;;;5073307;28;20102;-78
2023/01/10 06:15:56;;;;;;;10.35;3.65;;;5.10;99.90;;;;;;5063736;28;20052;-76
2023/01/10 06:18:22;;;;;;;6.82;2.80;;;5.20;99.90;;;;;;5070299;28;20048;-77
2023/01/10 06:20:47;;;;;;;12.90;3.05;;;5.20;99.90;;;;;;5064815;28;20092;-79
2023/01/10 06:23:13;;;;;;;12.35;3.30;;;5.10;99.90;;;;;;5075967;28;20097;-85
2023/01/10 06:25:40;;;;;;;11.50;3.80;;;5.10;99.90;;;;;;5078872;28;20127;-80
2023/01/10 06:28:11;;;;;;;12.50;3.22;;;5.10;99.90;;;;;;5042922;28;20515;-77
2023/01/10 06:30:40;;;;;;;9.38;2.92;;;5.00;99.90;;;;;;5061528;28;20052;-77
2023/01/10 06:33:08;;;;;;;7.68;3.15;;;5.00;99.90;;;;;;5079372;28;20450;-76
2023/01/10 06:35:35;;;;;;;10.52;4.00;;;5.10;99.90;;;;;;5049305;28;20564;-77
2023/01/10 06:38:01;;;;;;;8.32;3.25;;;5.10;99.90;;;;;;5066211;28;20055;-79
2023/01/10 06:40:28;;;;;;;9.10;3.20;;;5.10;99.90;;;;;;5054276;28;20075;-76
2023/01/10 06:42:53;;;;;;;8.82;3.00;;;5.20;99.90;;;;;;5092008;28;20506;-77
2023/01/10 06:45:19;;;;;;;10.52;3.15;;;5.20;99.90;;;;;;5055988;28;20044;-78
2023/01/10 06:47:45;;;;;;;9.52;3.83;;;5.20;99.90;;;;;;5094269;28;21873;-76
2023/01/10 06:50:12;;;;;;;17.23;4.70;;;5.20;99.90;;;;;;5074887;28;20052;-80
2023/01/10 06:52:38;;;;;;;7.53;2.85;;;5.10;99.90;;;;;;5109774;28;20081;-81
2023/01/10 06:55:04;;;;;;;7.25;2.60;;;5.10;99.90;;;;;;5062686;28;20082;-79
2023/01/10 06:57:34;;;;;;;8.10;2.95;;;5.10;99.90;;;;;;5071818;28;20069;-78
2023/01/10 07:00:01;;;;;;;10.90;3.55;;;5.20;99.90;;;;;;5064973;28;20053;-81
2023/01/10 07:02:27;;;;;;;10.32;3.08;;;5.20;99.90;;;;;;5092478;28;20056;-76
2023/01/10 07:04:52;;;;;;;9.25;2.83;;;5.20;99.90;;;;;;5054324;28;20099;-81
2023/01/10 07:07:18;;;;;;;10.18;3.20;;;5.20;99.90;;;;;;5067754;28;20056;-77
2023/01/10 07:09:45;;;;;;;11.95;2.75;;;5.20;99.90;;;;;;5068577;28;20504;-79
2023/01/10 07:12:10;;;;;;;13.90;3.22;;;5.30;99.90;;;;;;5064835;28;20072;-79
2023/01/10 07:14:36;;;;;;;10.23;3.28;;;5.30;99.90;;;;;;5066590;28;20051;-77
2023/01/10 07:17:02;;;;;;;12.20;2.88;;;5.30;99.90;;;;;;5072025;28;20061;-77
2023/01/10 07:19:28;;;;;;;7.22;2.60;;;5.30;99.90;;;;;;5059697;28;20052;-78
2023/01/10 07:21:53;;;;;;;10.00;3.00;;;5.30;99.90;;;;;;5061050;28;20037;-80
2023/01/10 07:24:19;;;;;;;7.38;2.78;;;5.40;99.90;;;;;;5048177;28;20052;-86
2023/01/10 07:26:45;;;;;;;12.60;3.10;;;5.40;99.90;;;;;;5077370;28;20049;-80
2023/01/10 07:29:11;;;;;;;8.77;2.50;;;5.40;99.90;;;;;;5078810;28;20586;-78
2023/01/10 07:31:36;;;;;;;6.97;2.63;;;5.30;99.90;;;;;;5059692;28;20136;-77
2023/01/10 07:34:02;;;;;;;13.75;2.78;;;5.30;99.90;;;;;;5063949;28;20041;-82
2023/01/10 07:36:28;;;;;;;8.20;2.60;;;5.20;99.90;;;;;;5051409;28;20056;-78
2023/01/10 07:38:54;;;;;;;10.48;3.25;;;5.20;99.90;;;;;;5069938;28;20476;-79
2023/01/10 07:41:19;;;;;;;10.13;3.03;;;5.20;99.90;;;;;;5058002;28;20078;-77
2023/01/10 07:43:45;;;;;;;9.43;3.17;;;5.20;99.90;;;;;;5075988;28;20036;-82
2023/01/10 07:46:11;;;;;;;10.00;3.75;;;5.20;99.90;;;;;;5050697;28;20033;-80
2023/01/10 07:48:38;;;;;;;10.75;3.25;;;5.20;99.90;;;;;;5077485;28;20059;-78
2023/01/10 07:51:04;;;;;;;8.57;3.22;;;5.20;99.90;;;;;;5056092;28;20460;-79
2023/01/10 07:53:30;;;;;;;8.30;3.42;;;5.20;99.90;;;;;;5068934;28;20131;-80
2023/01/10 07:56:01;;;;;;;10.82;3.33;;;5.20;99.90;;;;;;5055102;28;20578;-79
2023/01/10 07:58:28;;;;;;;8.23;2.65;;;5.20;99.90;;;;;;5072722;28;20127;-81
2023/01/10 08:01:01;;;;;;;9.30;2.65;;;5.10;99.90;;;;;;5079350;28;20045;-81
2023/01/10 08:03:32;;;;;;;10.43;3.70;;;5.10;99.90;;;;;;5062325;28;20054;-77
2023/01/10 08:06:11;;;;;;;10.50;3.47;;;5.10;99.90;;;;;;5058497;28;20075;-77
2023/01/10 08:08:37;;;;;;;9.73;3.35;;;5.10;99.90;;;;;;5061220;28;20124;-88
2023/01/10 08:11:03;;;;;;;11.40;3.45;;;5.10;99.90;;;;;;5052100;28;20242;-78
2023/01/10 08:13:30;;;;;;;8.57;3.35;;;5.00;99.90;;;;;;5068788;28;20049;-79
2023/01/10 08:15:56;;;;;;;10.98;3.85;;;5.00;99.90;;;;;;5044522;28;20101;-77
2023/01/10 08:18:25;;;;;;;12.57;3.47;;;5.00;99.90;;;;;;5091992;28;20048;-80
2023/01/10 08:20:52;;;;;;;8.50;3.20;;;5.00;99.90;;;;;;5076660;28;20098;-83
2023/01/10 08:23:19;;;;;;;8.43;3.15;;;5.00;99.90;;;;;;5057240;28;20037;-81
2023/01/10 08:25:45;;;;;;;10.35;3.10;;;5.00;99.90;;;;;;5064803;28;20058;-77
2023/01/10 08:28:12;;;;;;;8.02;3.00;;;5.00;99.90;;;;;;5060145;28;20053;-87
2023/01/10 08:30:38;;;;;;;10.60;3.50;;;5.00;99.90;;;;;;5078959;28;20075;-80
2023/01/10 08:33:05;;;;;;;12.57;3.45;;;5.10;99.90;;;;;;5052014;28;20051;-79
2023/01/10 08:35:35;;;;;;;8.77;2.70;;;5.00;99.90;;;;;;5076415;28;20045;-83
2023/01/10 08:38:01;;;;;;;8.57;2.83;;;5.00;99.90;;;;;;5077740;28;20076;-82
2023/01/10 08:40:26;;;;;;;10.35;3.67;;;5.00;99.90;;;;;;5065269;28;20555;-82
2023/01/10 08:42:58;;;;;;;13.13;3.80;;;5.10;99.90;;;;;;5078271;28;20106;-83
2023/01/10 08:45:24;;;;;;;13.05;3.00;;;5.20;99.90;;;;;;5091190;28;20041;-81
2023/01/10 08:47:49;;;;;;;13.77;3.60;;;5.30;99.90;;;;;;5063805;28;20041;-78
2023/01/10 08:50:15;;;;;;;10.57;3.00;;;5.30;99.90;;;;;;5079532;28;20104;-76
2023/01/10 08:52:41;;;;;;;9.90;3.05;;;5.40;99.90;;;;;;5109548;28;20481;-81
2023/01/10 08:55:07;;;;;;;14.13;3.17;;;5.40;99.90;;;;;;5046544;28;20036;-77
2023/01/10 08:57:33;;;;;;;10.68;2.92;;;5.50;99.90;;;;;;5111734;28;20044;-77
2023/01/10 08:59:58;;;;;;;10.00;3.42;;;5.50;99.90;;;;;;5050725;28;20041;-77
2023/01/10 09:02:24;;;;;;;12.63;2.70;;;5.50;99.90;;;;;;5068876;28;20052;-78
2023/01/10 09:04:50;;;;;;;11.75;3.38;;;5.50;99.90;;;;;;5049576;28;20044;-82
2023/01/10 09:07:15;;;;;;;8.40;3.60;;;5.50;99.90;;;;;;5069903;28;20071;-76
2023/01/10 09:09:41;;;;;;;14.75;3.40;;;5.50;99.90;;;;;;5060970;28;20057;-79
2023/01/10 09:12:53;;;;;;;11.10;3.50;;;5.50;99.90;;;;;;5075749;28;20396;-79
2023/01/10 09:14:53;;;;;;;8.60;2.70;;;5.50;99.90;;;;;;5071117;28;20057;-77
2023/01/10 09:17:18;;;;;;;8.05;3.05;;;5.40;99.90;;;;;;5081863;28;20468;-77
2023/01/10 09:19:44;;;;;;;11.23;3.13;;;4.80;99.90;;;;;;5072467;28;20551;-77
2023/01/10 09:22:10;;;;;;;9.63;2.95;;;5.30;99.90;;;;;;5031141;28;20047;-79
2023/01/10 09:24:40;;;;;;;9.73;3.22;;;5.40;99.90;;;;;;5070700;28;20097;-76
2023/01/10 09:27:06;;;;;;;11.20;2.65;;;5.40;99.90;;;;;;5072685;28;20083;-76
2023/01/10 09:29:32;;;;;;;13.25;3.00;;;5.50;99.90;;;;;;5053440;28;20049;-78
2023/01/10 09:31:57;;;;;;;12.15;3.45;;;5.60;99.90;;;;;;5072483;28;20052;-79
2023/01/10 09:34:23;;;;;;;7.72;3.20;;;5.70;99.90;;;;;;5068239;28;20049;-83
2023/01/10 09:36:49;;;;;;;7.90;2.60;;;5.80;99.90;;;;;;5057363;28;20049;-79
2023/01/10 09:39:15;;;;;;;10.82;3.33;;;5.80;99.90;;;;;;5046739;28;20075;-76
2023/01/10 09:42:02;;;;;;;13.90;3.28;;;5.90;99.90;;;;;;5057189;28;20385;-76
2023/01/10 09:44:48;;;;;;;;;;;6.00;99.90;;;;;;5092219;28;20053;-79
2023/01/10 09:47:16;;;;;;;11.77;3.05;;;6.00;99.90;;;;;;5073303;28;19967;-78
2023/01/10 09:50:00;;;;;;;11.38;3.50;;;6.00;99.90;;;;;;5068371;28;20671;-79
2023/01/10 09:52:34;;;;;;;11.18;3.35;;;6.00;99.90;;;;;;5073756;28;20086;-77
2023/01/10 09:55:20;;;;;;;10.93;3.30;;;6.10;99.90;;;;;;5088217;28;20104;-77
2023/01/10 09:57:47;;;;;;;8.77;3.25;;;6.10;99.90;;;;;;5064881;28;20044;-77
2023/01/10 10:00:20;;;;;;;13.23;3.70;;;6.10;99.90;;;;;;5078042;28;20639;-79
2023/01/10 10:02:51;;;;;;;10.68;3.63;;;6.20;99.90;;;;;;5091105;28;20095;-78
2023/01/10 10:05:27;;;;;;;14.00;4.20;;;6.20;99.90;;;;;;5072764;28;20507;-79
2023/01/10 10:07:55;;;;;;;11.43;4.32;;;6.30;99.90;;;;;;5077285;28;20092;-78
2023/01/10 10:10:24;;;;;;;9.85;3.88;;;6.30;99.90;;;;;;5090590;28;20040;-76
2023/01/10 10:12:58;;;;;;;10.07;4.20;;;6.30;99.90;;;;;;5064645;28;20146;-83
2023/01/10 10:15:31;;;;;;;13.82;3.83;;;6.30;99.90;;;;;;5049225;28;20037;-79
2023/01/10 10:18:12;;;;;;;10.85;4.72;;;6.40;99.90;;;;;;5092105;28;20369;-79
2023/01/10 10:20:41;;;;;;;12.68;4.78;;;6.40;99.90;;;;;;5071686;28;20103;-77
2023/01/10 10:23:10;;;;;;;9.55;3.63;;;6.40;99.90;;;;;;5074183;28;20094;-81
2023/01/10 10:25:39;;;;;;;11.23;4.55;;;6.80;99.90;;;;;;5078484;28;20048;-78
2023/01/10 10:28:42;;;;;;;11.32;4.75;;;6.50;99.90;;;;;;5069173;28;20386;-82
2023/01/10 10:31:29;;;;;;;11.10;4.60;;;6.50;99.90;;;;;;5071653;28;20677;-76
2023/01/10 10:34:23;;;;;;;13.82;5.07;;;6.50;99.90;;;;;;5077531;28;20380;-76
2023/01/10 10:37:03;;;;;;;10.90;4.72;;;6.50;99.90;;;;;;5070000;28;20052;-76
2023/01/10 10:39:41;;;;;;;15.30;4.60;;;6.50;99.90;;;;;;5079086;28;20052;-80
2023/01/10 10:42:13;;;;;;;10.23;4.55;;;6.50;99.90;;;;;;5091107;28;20079;-78
2023/01/10 10:44:53;;;;;;;14.98;4.65;;;6.50;99.90;;;;;;5051799;28;20055;-78
2023/01/10 10:47:21;;;;;;;10.68;4.45;;;6.60;99.90;;;;;;5065778;28;20037;-76
2023/01/10 10:50:38;;;;;;;15.50;5.18;;;6.60;99.90;;;;;;5059416;28;20166;-77
2023/01/10 10:53:04;;;;;;;10.13;3.88;;;6.60;99.90;;;;;;5051496;28;20084;-78
2023/01/10 10:55:36;;;;;;;15.70;5.40;;;6.60;99.90;;;;;;5072641;28;20396;-75
2023/01/10 10:58:04;;;;;;;16.77;5.20;;;6.60;99.90;;;;;;5088714;28;20124;-79
2023/01/10 11:00:31;;;;;;;13.80;4.50;;;6.60;99.90;;;;;;5098814;28;20055;-81
2023/01/10 11:03:15;;;;;;;16.92;4.32;;;6.60;99.90;;;;;;5075792;28;20078;-79
2023/01/10 11:05:45;;;;;;;10.10;4.68;;;6.60;99.90;;;;;;5074820;28;20040;-77
2023/01/10 11:08:14;;;;;;;15.38;4.50;;;6.60;99.90;;;;;;5077802;28;20071;-78
2023/01/10 11:10:45;;;;;;;13.25;4.95;;;6.70;99.90;;;;;;5058469;28;20048;-79
2023/01/10 11:13:24;;;;;;;9.52;3.97;;;6.70;99.90;;;;;;5076670;28;20145;-78
2023/01/10 11:15:50;;;;;;;10.70;4.20;;;6.70;99.90;;;;;;5085133;28;20102;-80
2023/01/10 11:18:25;;;;;;;11.25;4.88;;;6.70;99.90;;;;;;5091567;28;20081;-80
2023/01/10 11:20:59;;;;;;;14.30;4.35;;;6.60;99.90;;;;;;5057623;28;20065;-79
2023/01/10 11:23:54;;;;;;;15.93;5.07;;;6.70;99.90;;;;;;5043034;28;20055;-80
2023/01/10 11:26:35;;;;;;;14.88;5.05;;;6.60;99.90;;;;;;5053220;28;20101;-77
2023/01/10 11:29:14;;;;;;;11.90;4.10;;;6.70;99.90;;;;;;5064669;28;20044;-76
2023/01/10 11:31:40;;;;;;;9.35;3.67;;;6.70;99.90;;;;;;5061747;28;20075;-79
2023/01/10 11:34:21;;;;;;;12.75;3.83;;;6.70;99.90;;;;;;5059055;28;20045;-78
2023/01/10 11:36:58;;;;;;;11.10;3.13;;;6.70;99.90;;;;;;5067304;28;20048;-78
2023/01/10 11:39:24;;;;;;;9.82;2.90;;;6.70;99.90;;;;;;5073751;28;20546;-74
2023/01/10 11:41:52;;;;;;;10.93;2.50;;;6.70;99.90;;;;;;5085905;28;20108;-75
2023/01/10 11:44:28;;;;;;;12.05;3.70;;;6.70;99.90;;;;;;5069762;28;20711;-78
2023/01/10 11:47:10;;;;;;;8.95;3.20;;;6.70;99.90;;;;;;5077423;28;20071;-77
2023/01/10 11:49:38;;;;;;;8.65;3.63;;;6.80;99.90;;;;;;5072870;28;20053;-80
2023/01/10 11:52:19;;;;;;;6.82;2.45;;;6.70;99.90;;;;;;5048643;28;20089;-79
2023/01/10 11:54:45;;;;;;;8.35;2.30;;;6.80;99.90;;;;;;5096441;28;20045;-77
2023/01/10 11:57:18;;;;;;;12.68;3.58;;;6.70;99.90;;;;;;5090609;28;20036;-81
2023/01/10 11:59:57;;;;;;;10.20;3.05;;;6.70;99.90;;;;;;5062616;28;20040;-79
2023/01/10 12:02:25;;;;;;;8.63;3.42;;;6.80;99.90;;;;;;5057538;28;20048;-81
2023/01/10 12:04:53;;;;;;;6.78;3.22;;;6.80;99.90;;;;;;5078104;28;20053;-79
2023/01/10 12:07:18;;;;;;;9.57;3.75;;;6.80;99.90;;;;;;5071820;28;20127;-79
2023/01/10 12:09:53;;;;;;;11.80;3.10;;;6.70;99.90;;;;;;5080377;28;20036;-78
2023/01/10 12:12:20;;;;;;;7.65;3.15;;;6.70;99.90;;;;;;5049036;28;20506;-77
2023/01/10 12:14:47;;;;;;;7.80;2.88;;;6.70;99.90;;;;;;5059341;28;20044;-78
2023/01/10 12:17:35;;;;;;;11.20;3.40;;;6.70;99.90;;;;;;5055357;28;20523;-77
2023/01/10 12:20:03;;;;;;;9.57;3.15;;;6.70;99.90;;;;;;5066741;28;20056;-78
2023/01/10 12:22:47;;;;;;;12.20;3.65;;;6.70;99.90;;;;;;5058412;28;20416;-79
2023/01/10 12:25:43;;;;;;;7.60;3.55;;;6.70;99.90;;;;;;5052650;28;20048;-80
2023/01/10 12:28:29;;;;;;;14.15;3.28;;;6.70;99.90;;;;;;5059793;28;20118;-78
2023/01/10 12:30:57;;;;;;;14.38;4.88;;;6.70;99.90;;;;;;5079254;28;20064;-80
2023/01/10 12:33:32;;;;;;;8.18;3.25;;;6.70;99.90;;;;;;5103712;28;20084;-79
2023/01/10 12:36:24;;;;;;;7.40;3.78;;;6.70;99.90;;;;;;5096459;28;20112;-81
2023/01/10 12:39:13;;;;;;;9.98;2.85;;;6.60;99.90;;;;;;5079695;28;20037;-77
2023/01/10 12:44:36;;;;;;;11.02;2.78;;;6.60;99.90;;;;;;5077330;28;20041;-77
2023/01/10 12:47:23;;;;;;;9.48;2.55;;;6.60;99.90;;;;;;5075880;28;20055;-80
2023/01/10 12:50:08;;;;;;;9.60;2.97;;;6.60;99.90;;;;;;5092509;28;20056;-76
2023/01/10 12:52:47;;;;;;;11.82;2.90;;;6.60;99.90;;;;;;5059840;28;20037;-77
2023/01/10 12:55:18;;;;;;;8.25;3.15;;;6.60;99.90;;;;;;5097076;28;20048;-77
2023/01/10 12:57:48;;;;;;;7.82;2.60;;;6.60;99.90;;;;;;5049943;28;20578;-77
2023/01/10 13:00:40;;;;;;;17.08;3.58;;;6.60;99.90;;;;;;5093349;28;20040;-79
2023/01/10 13:03:13;;;;;;;7.97;2.70;;;6.50;99.90;;;;;;5079278;28;20049;-76
2023/01/10 13:05:40;;;;;;;11.32;2.80;;;6.60;99.90;;;;;;5065897;28;20107;-76
2023/01/10 13:08:11;;;;;;;8.82;2.90;;;6.50;99.90;;;;;;5072090;28;20048;-80
2023/01/10 13:10:43;;;;;;;10.40;3.65;;;6.50;99.90;;;;;;5049830;28;20044;-81
2023/01/10 13:13:34;;;;;;;8.93;3.10;;;6.50;99.90;;;;;;5097391;28;20043;-77
2023/01/10 13:16:03;;;;;;;9.13;3.38;;;6.50;99.90;;;;;;5091822;28;20049;-78
2023/01/10 13:18:30;;;;;;;11.88;3.47;;;6.50;99.90;;;;;;5064410;28;20312;-76
2023/01/10 13:21:03;;;;;;;7.43;3.08;;;6.50;99.90;;;;;;5073719;28;20056;-77
2023/01/10 13:23:32;;;;;;;9.60;2.72;;;6.40;99.90;;;;;;5076996;28;20048;-76
2023/01/10 13:26:08;;;;;;;10.00;3.10;;;6.40;99.90;;;;;;5079946;28;20147;-77